createdAt,value
2018-11-21T00:00:20.009Z,0.68
2018-11-21T00:03:24.582Z,0.47
2018-11-21T00:06:29.180Z,0.35
2018-11-21T00:09:33.807Z,0.16
2018-11-21T00:12:39.441Z,0.20
2018-11-21T00:15:44.036Z,0.18
2018-11-21T00:18:48.612Z,-0.02
2018-11-21T00:21:53.193Z,-0.01
2018-11-21T00:24:57.823Z,-0.05
2018-11-21T00:28:03.017Z,-0.17
2018-11-21T00:31:08.325Z,-0.17
2018-11-21T00:34:12.909Z,-0.24
2018-11-21T00:37:18.386Z,-0.20
2018-11-21T00:40:22.976Z,-0.21
2018-11-21T00:43:27.546Z,-0.20
2018-11-21T00:46:32.437Z,-0.23
2018-11-21T00:49:37.060Z,-0.25
2018-11-21T00:52:41.637Z,-0.29
2018-11-21T00:55:46.366Z,-0.27
2018-11-21T00:58:51.014Z,-0.30
2018-11-21T01:01:55.624Z,-0.39
2018-11-21T01:05:00.483Z,-0.43
2018-11-21T01:08:05.390Z,-0.59
2018-11-21T01:11:10.113Z,-0.61
2018-11-21T01:14:14.680Z,-0.68
2018-11-21T01:17:20.085Z,-0.70
2018-11-21T01:20:24.972Z,-0.76
2018-11-21T01:23:29.549Z,-0.89
2018-11-21T01:26:34.498Z,-1.06
2018-11-21T01:29:39.075Z,-0.93
2018-11-21T01:32:43.986Z,-0.89
2018-11-21T01:35:48.561Z,-0.82
2018-11-21T01:38:54.474Z,-0.85
2018-11-21T01:41:59.238Z,-0.92
2018-11-21T01:45:04.105Z,-0.88
2018-11-21T01:48:08.689Z,-0.88
2018-11-21T01:51:13.288Z,-0.88
2018-11-21T01:54:17.905Z,-1.11
2018-11-21T01:57:22.614Z,-1.02
2018-11-21T02:00:27.199Z,-1.13
2018-11-21T02:03:31.842Z,-1.03
2018-11-21T02:06:36.436Z,-1.00
2018-11-21T02:09:41.005Z,-1.09
2018-11-21T02:12:45.593Z,-1.19
2018-11-21T02:15:50.583Z,-1.07
2018-11-21T02:18:55.161Z,-1.02
2018-11-21T02:21:59.761Z,-1.01
2018-11-21T02:25:05.531Z,-1.01
2018-11-21T02:28:10.531Z,-1.01
2018-11-21T02:31:15.148Z,-1.02
2018-11-21T02:34:20.105Z,-1.04
2018-11-21T02:37:24.746Z,-1.23
2018-11-21T02:40:29.663Z,-1.19
2018-11-21T02:43:34.248Z,-1.21
2018-11-21T02:46:38.842Z,-1.35
2018-11-21T02:49:43.719Z,-1.31
2018-11-21T02:52:48.603Z,-1.30
2018-11-21T02:55:53.197Z,-1.32
2018-11-21T02:58:57.797Z,-1.34
2018-11-21T03:02:03.367Z,-1.40
2018-11-21T03:05:07.922Z,-1.38
2018-11-21T03:08:12.551Z,-1.34
2018-11-21T03:11:17.127Z,-1.40
2018-11-21T03:14:21.728Z,-1.38
2018-11-21T03:17:26.348Z,-1.42
2018-11-21T03:20:31.550Z,-1.49
2018-11-21T03:23:36.477Z,-1.49
2018-11-21T03:26:41.171Z,-1.47
2018-11-21T03:29:45.758Z,-1.47
2018-11-21T03:32:51.444Z,-1.56
2018-11-21T03:35:56.186Z,-1.67
2018-11-21T03:39:00.806Z,-1.60
2018-11-21T03:42:05.386Z,-1.63
2018-11-21T03:45:10.866Z,-1.55
2018-11-21T03:48:15.846Z,-1.67
2018-11-21T03:51:20.428Z,-1.63
2018-11-21T03:54:25.047Z,-1.64
2018-11-21T03:57:29.621Z,-1.63
2018-11-21T04:00:34.200Z,-1.59
2018-11-21T04:03:38.797Z,-1.60
2018-11-21T04:06:43.412Z,-1.74
2018-11-21T04:09:48.013Z,-1.79
2018-11-21T04:12:52.633Z,-1.73
2018-11-21T04:15:57.591Z,-1.75
2018-11-21T04:19:02.210Z,-1.71
2018-11-21T04:22:06.742Z,-1.70
2018-11-21T04:25:11.870Z,-1.79
2018-11-21T04:28:16.854Z,-1.74
2018-11-21T04:31:21.452Z,-1.76
2018-11-21T04:34:26.027Z,-1.75
2018-11-21T04:37:31.277Z,-1.73
2018-11-21T04:40:35.871Z,-1.70
2018-11-21T04:43:40.814Z,-1.63
2018-11-21T04:46:45.390Z,-1.60
2018-11-21T04:49:49.978Z,-1.60
2018-11-21T04:52:54.566Z,-1.63
2018-11-21T04:55:59.324Z,-1.60
2018-11-21T04:59:04.565Z,-1.47
2018-11-21T05:02:09.133Z,-1.49
2018-11-21T05:05:14.173Z,-1.44
2018-11-21T05:08:18.742Z,-1.38
2018-11-21T05:15:16.068Z,-1.37
2018-11-21T05:18:21.344Z,-1.47
2018-11-21T05:21:26.264Z,-1.46
2018-11-21T05:24:31.037Z,-1.51
2018-11-21T05:27:35.620Z,-1.50
2018-11-21T05:30:40.211Z,-1.45
2018-11-21T05:33:44.790Z,-1.40
2018-11-21T05:36:49.708Z,-1.42
2018-11-21T05:39:54.630Z,-1.36
2018-11-21T05:42:59.275Z,-1.34
2018-11-21T05:46:04.399Z,-1.30
2018-11-21T05:49:09.003Z,-1.34
2018-11-21T05:52:13.617Z,-1.31
2018-11-21T05:55:18.576Z,-1.35
2018-11-21T05:58:23.536Z,-1.29
2018-11-21T06:01:28.553Z,-1.30
2018-11-21T06:04:33.151Z,-1.30
2018-11-21T06:07:37.814Z,-1.32
2018-11-21T06:10:42.437Z,-1.29
2018-11-21T06:13:47.067Z,-1.33
2018-11-21T06:16:51.992Z,-1.36
2018-11-21T06:19:56.646Z,-1.40
2018-11-21T06:23:01.226Z,-1.29
2018-11-21T06:26:06.176Z,-1.33
2018-11-21T06:29:10.780Z,-1.37
2018-11-21T06:32:15.379Z,-1.41
2018-11-21T06:35:19.993Z,-1.51
2018-11-21T06:38:24.601Z,-1.59
2018-11-21T06:41:29.218Z,-1.68
2018-11-21T06:44:33.874Z,-1.64
2018-11-21T06:47:54.186Z,-1.57
2018-11-21T06:50:58.795Z,-1.58
2018-11-21T06:54:04.383Z,-1.56
2018-11-21T06:57:08.972Z,-1.60
2018-11-21T07:00:13.606Z,-1.66
2018-11-21T07:03:18.601Z,-1.67
2018-11-21T07:06:23.887Z,-1.77
2018-11-21T07:09:47.021Z,-1.65
2018-11-21T07:12:51.955Z,-1.41
2018-11-21T07:15:56.589Z,-1.29
2018-11-21T07:19:01.170Z,-1.07
2018-11-21T07:22:05.993Z,-0.91
2018-11-21T07:25:18.710Z,-0.71
2018-11-21T07:28:23.324Z,-0.57
2018-11-21T07:31:28.312Z,-0.39
2018-11-21T07:34:32.895Z,-0.32
2018-11-21T07:37:38.357Z,-0.25
2018-11-21T07:40:43.002Z,-0.06
2018-11-21T07:43:47.604Z,0.05
2018-11-21T07:46:52.204Z,0.16
2018-11-21T07:49:56.778Z,0.28
2018-11-21T07:53:01.639Z,0.39
2018-11-21T07:57:01.713Z,0.47
2018-11-21T08:00:55.398Z,0.72
2018-11-21T08:04:25.602Z,0.77
2018-11-21T08:07:43.210Z,0.78
2018-11-21T08:11:05.890Z,0.95
2018-11-21T08:14:48.316Z,1.15
2018-11-21T08:22:31.425Z,1.37
2018-11-21T08:25:55.687Z,1.43
2018-11-21T08:29:00.574Z,1.49
2018-11-21T08:32:05.191Z,1.65
2018-11-21T08:35:09.771Z,2.11
2018-11-21T08:38:14.834Z,2.51
2018-11-21T08:41:20.667Z,2.59
2018-11-21T08:44:25.275Z,2.61
2018-11-21T08:47:30.183Z,2.52
2018-11-21T08:50:34.965Z,2.63
2018-11-21T08:53:39.651Z,2.61
2018-11-21T08:56:44.342Z,2.84
2018-11-21T08:59:48.920Z,2.84
2018-11-21T09:02:53.689Z,2.78
2018-11-21T09:05:58.282Z,2.90
2018-11-21T09:09:04.746Z,2.98
2018-11-21T09:12:09.368Z,3.03
2018-11-21T09:15:14.951Z,3.10
2018-11-21T09:18:19.667Z,3.10
2018-11-21T09:21:24.323Z,3.14
2018-11-21T09:24:28.932Z,3.17
2018-11-21T09:27:33.993Z,3.11
2018-11-21T09:30:38.997Z,2.83
2018-11-21T09:33:43.606Z,2.57
2018-11-21T09:36:48.236Z,2.43
2018-11-21T09:39:52.831Z,2.54
2018-11-21T09:42:57.471Z,2.63
2018-11-21T09:46:02.087Z,2.77
2018-11-21T09:49:07.811Z,2.79
2018-11-21T09:52:11.511Z,2.84
2018-11-21T09:55:16.332Z,2.82
2018-11-21T09:58:20.958Z,2.74
2018-11-21T10:02:02.628Z,2.59
2018-11-21T10:05:07.695Z,2.44
2018-11-21T10:08:48.451Z,2.44
2018-11-21T10:11:53.854Z,2.74
2018-11-21T10:14:58.541Z,2.86
2018-11-21T10:18:03.763Z,2.81
2018-11-21T10:21:14.063Z,2.90
2018-11-21T10:24:19.092Z,3.10
2018-11-21T10:27:23.702Z,3.20
2018-11-21T10:30:28.339Z,3.31
2018-11-21T10:33:33.191Z,3.43
2018-11-21T10:36:37.802Z,3.22
2018-11-21T10:39:42.437Z,3.40
2018-11-21T10:42:47.404Z,3.53
2018-11-21T10:45:52.426Z,3.36
2018-11-21T10:48:57.428Z,3.39
2018-11-21T10:52:02.074Z,3.23
2018-11-21T10:55:06.747Z,3.16
2018-11-21T10:58:11.409Z,3.37
2018-11-21T11:01:34.055Z,3.54
2018-11-21T11:05:01.100Z,3.47
2018-11-21T11:08:23.842Z,3.26
2018-11-21T11:11:46.828Z,3.14
2018-11-21T11:15:34.728Z,3.10
2018-11-21T11:22:27.232Z,2.92
2018-11-21T11:25:58.526Z,3.12
2018-11-21T11:29:21.477Z,3.20
2018-11-21T11:32:38.364Z,3.18
2018-11-21T11:36:01.525Z,3.04
2018-11-21T11:39:22.175Z,2.98
2018-11-21T11:42:45.943Z,2.94
2018-11-21T11:46:12.953Z,3.01
2018-11-21T11:49:36.348Z,3.18
2018-11-21T11:52:59.708Z,3.23
2018-11-21T11:56:23.068Z,3.29
2018-11-21T11:59:52.670Z,3.39
2018-11-21T12:03:17.002Z,3.46
2018-11-21T12:06:40.187Z,3.37
